Alpha, Idaho
Current Conditions -  °F | °C
As of 2:20 PM on Friday 24 Oct 2014 (Local Time) from KMYL Reporting Station
Light Rain Light Rain  
Wind Chill: 45°   Ceiling: 3000
Heat Index: 45°   Visibility: 10mi
Dew Point: 43°   Wind: 0mph
Humidity: 93%   Direction: NA
Pressure: 30.09"   Gusts: NA
Location:  44.4236°N, 115.8°W
Report Text: KMYL 242020Z AUTO 00000KT 10SM -RA FEW008 BKN030 OVC041 07/06 A3009 RMK AO2 RAB1956 P0000 T00720061
Loading
Personal Weather Stations






























Interactive Weather Map New forecast layout! Learn more

10-Day Weather Forecast

Advertisements
Track Severe Weather on mobile